SVPL1: Red River at Shreveport Site 2

                                SHEF ID:       SVPL1     Red River at Shreveport Site 2
STATION TYPE:

PRECIP STAGE RIV-FLOW VOLTAGE
in ft cfs volt
Ccp-Rev Ccp-Rev Ccp-Rev Ccp-Rev
(America/Chicago)
07/14 00:00 0.00 14.95 15400 12.75
07/14 01:00 0.00 14.96 15520 12.74
07/14 02:00 0.00 14.98 15760 12.73
07/14 03:00 0.00 14.98 15760 12.73
07/14 04:00 0.00 14.97 15640 12.73
07/14 05:00 0.00 14.96 15520 12.73
07/14 06:00 0.00 14.95 15400 12.73
07/14 07:00 0.00 14.94 15280 13.04
07/14 08:00 0.00 14.93 15160 13.17
07/14 09:00 0.00 14.88 14560 13.32
07/14 10:00 0.00 14.83 13960 13.08
07/14 11:00 0.00 14.87 14440 13.07
07/14 12:00 0.00 14.88 14560 13.06
07/14 13:00 0.00 14.86 14320 13.07
07/14 14:00 0.00 14.83 13960 13.06
07/14 15:00 0.00 14.79 13480 13.07
07/14 16:00 0.00 14.74 12880 13.09
07/14 17:00 0.00 14.57 10840 13.07
07/14 18:00 0.00 14.65 11800 13.06
07/14 19:00 0.00 14.65 11800 12.93
07/14 20:00 0.00 14.63 11560 12.89
07/14 21:00 0.00 14.61 11320 12.86
07/14 22:00 0.00 14.57 10840 12.86
07/14 23:00 0.00 14.61 11320 12.86
Data processed at Wed 15Jul2026 04:24 GMT

NOTICE: If you are parsing this page

Please convert to using our Data API. Starting early 2026 we will be migrating to: https://water.usace.army.mil with modern pages rendered in JavaScript. When this migration completes you will no longer be able to scrape this page! CWMSDataAPI (CDA)

Timeseries IDs (TSIDs)

TSIDs used from left to right in the data table
SHRE.Precip-Inc.Total.1Hour.1Hour.Ccp-Rev
SHRE.Stage.Inst.1Hour.0.Ccp-Rev
SHRE.Flow.Inst.1Hour.0.Ccp-Rev
SHRE.Volt-Battery.Inst.1Hour.0.Ccp-Rev

                            

All information presented herein is the property of the government of the United States of America and may be revised or deleted at any time without prior notice. Dissemination of this information without the expressed written consent of the Public Affairs Office, Tulsa District U.S. Army Corps of Engineers is strictly prohibited. These data are gathered electronically and, as presented, have NOT undergone any form of quality control. These data are NOT guaranteed to be valid or correct.